createdAt,value
2022-10-30T00:04:33.909Z,100741.56
2022-10-30T00:19:25.284Z,100738.59
2022-10-30T00:34:17.261Z,100744.55
2022-10-30T00:49:17.799Z,100738.91
2022-10-30T01:04:14.051Z,100719.67
2022-10-30T01:19:06.589Z,100717.27
2022-10-30T01:34:14.305Z,100711.28
2022-10-30T01:49:21.331Z,100716.49
2022-10-30T02:04:18.101Z,100712.70
2022-10-30T02:19:09.591Z,100707.81
2022-10-30T02:34:01.235Z,100697.48
2022-10-30T03:03:44.717Z,100701.78
2022-10-30T03:18:37.004Z,100704.55
2022-10-30T03:33:27.966Z,100706.00
2022-10-30T03:48:19.544Z,100707.70
2022-10-30T04:03:12.682Z,100716.09
2022-10-30T04:18:06.350Z,100708.79
2022-10-30T04:32:58.623Z,100700.34
2022-10-30T04:47:49.757Z,100705.45
2022-10-30T05:02:41.086Z,100695.31
2022-10-30T05:17:32.712Z,100678.72
2022-10-30T05:32:25.235Z,100689.31
2022-10-30T05:47:16.445Z,100701.95
2022-10-30T06:02:07.949Z,100702.91
2022-10-30T06:17:00.223Z,100720.66
2022-10-30T06:31:52.793Z,100730.41
2022-10-30T06:46:46.246Z,100732.53
2022-10-30T07:01:39.191Z,100725.87
2022-10-30T07:16:31.744Z,100735.39
2022-10-30T07:31:35.016Z,100737.90
2022-10-30T07:46:16.789Z,100744.81
2022-10-30T08:01:11.489Z,100754.03
2022-10-30T08:31:11.269Z,100759.95
2022-10-30T08:46:03.411Z,100757.03
2022-10-30T09:01:01.185Z,100759.81
2022-10-30T09:15:50.107Z,100753.94
2022-10-30T09:30:43.242Z,100751.52
2022-10-30T09:45:44.010Z,100753.56
2022-10-30T10:00:54.055Z,100759.80
2022-10-30T10:15:51.136Z,100751.63
2022-10-30T10:30:50.324Z,100751.64
2022-10-30T10:45:50.397Z,100742.82
2022-10-30T11:00:46.523Z,100725.19
2022-10-30T11:15:56.940Z,100718.06
2022-10-30T11:30:55.839Z,100717.77
2022-10-30T11:45:48.237Z,100717.66
2022-10-30T12:00:41.039Z,100717.34
2022-10-30T12:15:34.164Z,100701.70
2022-10-30T12:30:27.188Z,100691.00
2022-10-30T12:45:34.919Z,100673.59
2022-10-30T13:00:33.592Z,100660.23
2022-10-30T13:15:28.960Z,100649.63
2022-10-30T13:30:25.162Z,100647.45
2022-10-30T13:45:26.631Z,100645.31
2022-10-30T14:00:26.813Z,100648.19
2022-10-30T14:15:35.093Z,100654.98
2022-10-30T14:30:32.164Z,100649.58
2022-10-30T14:45:26.594Z,100652.20
2022-10-30T15:00:24.205Z,100646.30
2022-10-30T15:15:18.902Z,100650.33
2022-10-30T15:30:19.979Z,100652.59
2022-10-30T15:45:22.155Z,100657.41
2022-10-30T16:00:19.950Z,100656.59
2022-10-30T16:15:26.472Z,100644.61
2022-10-30T16:30:23.966Z,100655.21
2022-10-30T16:45:18.685Z,100645.95
2022-10-30T17:00:25.972Z,100648.62
2022-10-30T17:15:18.387Z,100667.61
2022-10-30T17:30:36.763Z,100697.92
2022-10-30T17:45:34.472Z,100720.94
2022-10-30T18:00:27.500Z,100742.01
2022-10-30T18:15:24.573Z,100760.16
2022-10-30T18:30:20.031Z,100767.75
2022-10-30T18:45:14.073Z,100774.13
2022-10-30T19:00:26.503Z,100780.83
2022-10-30T19:15:18.343Z,100789.12
2022-10-30T19:30:13.729Z,100789.30
2022-10-30T19:45:05.779Z,100796.77
2022-10-30T19:59:57.782Z,100796.25
2022-10-30T20:14:49.703Z,100799.10
2022-10-30T20:29:41.428Z,100808.31
2022-10-30T20:44:33.096Z,100823.80
2022-10-30T20:59:25.268Z,100832.66
2022-10-30T21:14:17.873Z,100844.17
2022-10-30T21:29:08.628Z,100848.25
2022-10-30T21:43:59.615Z,100850.67
2022-10-30T21:58:51.308Z,100843.98
2022-10-30T22:13:43.039Z,100853.52
2022-10-30T22:28:35.097Z,100850.20
2022-10-30T22:43:26.101Z,100841.72
2022-10-30T23:13:09.195Z,100840.23
2022-10-30T23:27:59.940Z,100837.23
2022-10-30T23:42:53.901Z,100831.23
2022-10-30T23:57:47.720Z,100828.11
